Time;durP1;ratioP1;P1;durP2;ratioP2;P2;SDS_P1;SDS_P2;PMS_P1;PMS_P2;Temp;Humidity;BMP_temperature;BMP_pressure;BME280_temperature;BME280_humidity;BME280_pressure;Samples;Min_cycle;Max_cycle;Signal;HPM_P1;HPM_P2
2021/12/04 00:00:23;;;;;;;;;;;;;;;;;;2056784;28;19926;-46
2021/12/04 00:01:29;;;;;;;;;;;;;;;;;;2049974;28;19926;-47
2021/12/04 00:02:30;;;;;;;;;;;;;;;;;;2049797;29;20288;-46
2021/12/04 00:03:30;;;;;;;;;;;;;;;;;;2053987;28;20295;-46
2021/12/04 00:04:33;;;;;;;;;;;;;;;;;;2049610;28;20305;-47
2021/12/04 00:05:34;;;;;;;;;;;;;;;;;;2049630;29;20440;-46
2021/12/04 00:06:38;;;;;;;;;;;;;;;;;;2053905;28;19926;-47
2021/12/04 00:07:39;;;;;;;;;;;;;;;;;;2057682;28;19926;-46
2021/12/04 00:08:44;;;;;;;;;;;;;;;;;;2057559;28;19958;-46
2021/12/04 00:09:46;;;;;;;;;;;;;;;;;;2054497;28;20036;-47
2021/12/04 00:10:47;;;;;;;;;;;;;;;;;;2057589;28;19926;-46
2021/12/04 00:11:53;;;;;;;;;;;;;;;;;;2057229;28;19926;-48
2021/12/04 00:12:54;;;;;;;;;;;;;;;;;;2055104;28;19926;-46
2021/12/04 00:13:55;;;;;;;;;;;;;;;;;;2057561;28;19930;-46
2021/12/04 00:14:55;;;;;;;;;;;;;;;;;;2056994;28;19950;-47
2021/12/04 00:15:56;;;;;;;;;;;;;;;;;;2055830;28;20454;-49
2021/12/04 00:16:57;;;;;;;;;;;;;;;;;;2057665;28;19957;-48
2021/12/04 00:18:00;;;;;;;;;;;;;;;;;;2056689;28;20403;-48
2021/12/04 00:19:00;;;;;;;;;;;;;;;;;;2056500;28;20028;-46
2021/12/04 00:20:01;;;;;;;;;;;;;;;;;;2057572;28;19930;-46
2021/12/04 00:21:03;;;;;;;;;;;;;;;;;;2054309;28;20120;-47
2021/12/04 00:22:04;;;;;;;;;;;;;;;;;;2057418;28;20073;-46
2021/12/04 00:23:04;;;;;;;;;;;;;;;;;;2057534;28;19926;-46
2021/12/04 00:24:05;;;;;;;;;;;;;;;;;;2055657;28;20016;-46
2021/12/04 00:25:06;;;;;;;;;;;;;;;;;;2049622;28;19926;-47
2021/12/04 00:26:07;;;;;;;;;;;;;;;;;;2049574;29;19942;-47
2021/12/04 00:27:08;;;;;;;;;;;;;;;;;;2054148;28;19926;-50
2021/12/04 00:28:09;;;;;;;;;;;;;;;;;;2057525;28;20269;-47
2021/12/04 00:29:10;;;;;;;;;;;;;;;;;;2056031;28;19926;-47
2021/12/04 00:30:11;;;;;;;;;;;;;;;;;;2055245;28;20029;-50
2021/12/04 00:31:12;;;;;;;;;;;;;;;;;;2057001;28;19930;-47
2021/12/04 00:32:21;;;;;;;;;;;;;;;;;;2056940;28;19969;-46
2021/12/04 00:33:25;;;;;;;;;;;;;;;;;;2054669;28;20025;-46
2021/12/04 00:34:27;;;;;;;;;;;;;;;;;;2057427;28;19926;-46
2021/12/04 00:35:44;;;;;;;;;;;;;;;;;;2056590;28;19930;-47
2021/12/04 00:37:02;;;;;;;;;;;;;;;;;;2056432;28;20304;-46
2021/12/04 00:43:17;;;;;;;;;;;;;;;;;;2057499;28;20013;-47
2021/12/04 00:49:08;;;;;;;;;;;;;;;;;;2057587;28;19926;-47
2021/12/04 00:50:09;;;;;;;;;;;;;;;;;;2057059;28;20005;-46
2021/12/04 00:51:09;;;;;;;;;;;;;;;;;;2055480;28;19949;-47
2021/12/04 00:52:10;;;;;;;;;;;;;;;;;;2057503;28;20021;-47
2021/12/04 00:53:11;;;;;;;;;;;;;;;;;;2056817;28;19972;-50
2021/12/04 00:54:13;;;;;;;;;;;;;;;;;;2055585;28;20384;-50
2021/12/04 00:55:13;;;;;;;;;;;;;;;;;;2057413;28;20009;-46
2021/12/04 00:56:14;;;;;;;;;;;;;;;;;;2056425;28;19926;-49
2021/12/04 00:57:15;;;;;;;;;;;;;;;;;;2055923;28;19961;-47
2021/12/04 00:58:16;;;;;;;;;;;;;;;;;;2057315;28;19980;-47
2021/12/04 00:59:17;;;;;;;;;;;;;;;;;;2056625;28;19930;-43
2021/12/04 01:00:18;;;;;;;;;;;;;;;;;;2055931;28;20400;-43
2021/12/04 01:01:19;;;;;;;;;;;;;;;;;;2057502;28;19926;-43
2021/12/04 01:02:20;;;;;;;;;;;;;;;;;;2054872;28;19933;-43
2021/12/04 01:03:21;;;;;;;;;;;;;;;;;;2056093;28;19926;-43
2021/12/04 01:04:21;;;;;;;;;;;;;;;;;;2057299;28;20281;-43
2021/12/04 01:05:22;;;;;;;;;;;;;;;;;;2055600;28;19926;-43
2021/12/04 01:06:23;;;;;;;;;;;;;;;;;;2055986;28;20367;-43
2021/12/04 01:07:25;;;;;;;;;;;;;;;;;;2057171;28;20371;-43
2021/12/04 01:08:25;;;;;;;;;;;;;;;;;;2054888;28;20037;-43
2021/12/04 01:09:27;;;;;;;;;;;;;;;;;;2056025;28;19970;-43
2021/12/04 01:10:27;;;;;;;;;;;;;;;;;;2057185;28;19935;-43
2021/12/04 01:11:28;;;;;;;;;;;;;;;;;;2053658;28;19933;-43
2021/12/04 01:12:29;;;;;;;;;;;;;;;;;;2057228;28;19949;-43
2021/12/04 01:13:30;;;;;;;;;;;;;;;;;;2056820;28;19930;-43
2021/12/04 01:14:32;;;;;;;;;;;;;;;;;;2054596;28;19927;-43
2021/12/04 01:15:32;;;;;;;;;;;;;;;;;;2057060;28;19965;-43
2021/12/04 01:16:33;;;;;;;;;;;;;;;;;;2057433;28;19926;-43
2021/12/04 01:17:34;;;;;;;;;;;;;;;;;;2054704;28;19933;-43
2021/12/04 01:18:35;;;;;;;;;;;;;;;;;;2049242;28;19926;-43
2021/12/04 01:19:36;;;;;;;;;;;;;;;;;;2049275;28;19943;-43
2021/12/04 01:20:38;;;;;;;;;;;;;;;;;;2054519;28;20025;-43
2021/12/04 01:21:39;;;;;;;;;;;;;;;;;;2057208;28;19985;-43
2021/12/04 01:22:40;;;;;;;;;;;;;;;;;;2056720;28;20384;-43
2021/12/04 01:23:41;;;;;;;;;;;;;;;;;;2055269;28;19941;-43
2021/12/04 01:24:42;;;;;;;;;;;;;;;;;;2057237;28;19930;-43
2021/12/04 01:25:42;;;;;;;;;;;;;;;;;;2056821;28;20303;-43
2021/12/04 01:26:43;;;;;;;;;;;;;;;;;;2055404;28;19933;-43
2021/12/04 01:27:46;;;;;;;;;;;;;;;;;;2057357;28;20511;-43
2021/12/04 01:28:47;;;;;;;;;;;;;;;;;;2055209;28;20025;-43
2021/12/04 01:29:47;;;;;;;;;;;;;;;;;;2055590;28;20008;-43
2021/12/04 01:30:48;;;;;;;;;;;;;;;;;;2057167;28;19926;-43
2021/12/04 01:31:49;;;;;;;;;;;;;;;;;;2053835;28;20348;-43
2021/12/04 01:32:50;;;;;;;;;;;;;;;;;;2055816;28;19934;-43
2021/12/04 01:33:51;;;;;;;;;;;;;;;;;;2057183;28;20343;-43
2021/12/04 01:34:52;;;;;;;;;;;;;;;;;;2055162;28;19934;-43
2021/12/04 01:35:52;;;;;;;;;;;;;;;;;;2056826;28;20029;-43
2021/12/04 01:36:53;;;;;;;;;;;;;;;;;;2056964;28;20411;-43
2021/12/04 01:37:54;;;;;;;;;;;;;;;;;;2054963;28;19926;-43
2021/12/04 01:38:55;;;;;;;;;;;;;;;;;;2057145;28;19988;-43
2021/12/04 01:39:56;;;;;;;;;;;;;;;;;;2057259;28;20295;-43
2021/12/04 01:40:57;;;;;;;;;;;;;;;;;;2053865;28;19980;-43
2021/12/04 01:41:58;;;;;;;;;;;;;;;;;;2056977;28;19951;-43
2021/12/04 01:42:59;;;;;;;;;;;;;;;;;;2056260;28;19952;-43
2021/12/04 01:43:59;;;;;;;;;;;;;;;;;;2054937;28;20266;-43
2021/12/04 01:45:00;;;;;;;;;;;;;;;;;;2057043;28;19929;-43
2021/12/04 01:46:01;;;;;;;;;;;;;;;;;;2057088;28;19926;-43
2021/12/04 01:47:02;;;;;;;;;;;;;;;;;;2054624;28;19952;-43
2021/12/04 01:48:03;;;;;;;;;;;;;;;;;;2057382;28;19937;-47
2021/12/04 01:49:04;;;;;;;;;;;;;;;;;;2057078;28;19937;-47
2021/12/04 01:50:05;;;;;;;;;;;;;;;;;;2053959;28;19926;-47
2021/12/04 01:51:06;;;;;;;;;;;;;;;;;;2057242;28;20484;-47
2021/12/04 01:52:06;;;;;;;;;;;;;;;;;;2056511;28;19977;-47
2021/12/04 01:53:07;;;;;;;;;;;;;;;;;;2055210;28;19926;-47
2021/12/04 01:54:08;;;;;;;;;;;;;;;;;;2056928;28;19930;-47
2021/12/04 01:55:09;;;;;;;;;;;;;;;;;;2056660;28;19961;-47
2021/12/04 01:56:10;;;;;;;;;;;;;;;;;;2055187;28;19926;-48
2021/12/04 01:57:11;;;;;;;;;;;;;;;;;;2057094;28;19926;-49
2021/12/04 01:58:11;;;;;;;;;;;;;;;;;;2055154;28;20312;-47
2021/12/04 01:59:12;;;;;;;;;;;;;;;;;;2055283;28;20013;-47
2021/12/04 02:00:13;;;;;;;;;;;;;;;;;;2057097;28;20315;-48
2021/12/04 02:01:14;;;;;;;;;;;;;;;;;;2054948;28;20017;-47
2021/12/04 02:02:15;;;;;;;;;;;;;;;;;;2054645;28;19927;-47
2021/12/04 02:03:18;;;;;;;;;;;;;;;;;;2056983;28;19926;-46
2021/12/04 02:04:18;;;;;;;;;;;;;;;;;;2056012;28;20016;-47
2021/12/04 02:05:19;;;;;;;;;;;;;;;;;;2054550;28;20057;-46
2021/12/04 02:06:20;;;;;;;;;;;;;;;;;;2057001;28;19937;-47
2021/12/04 02:07:22;;;;;;;;;;;;;;;;;;2055515;28;19930;-47
2021/12/04 02:08:23;;;;;;;;;;;;;;;;;;2055302;28;20001;-46
2021/12/04 02:09:24;;;;;;;;;;;;;;;;;;2056946;28;19930;-47
2021/12/04 02:10:25;;;;;;;;;;;;;;;;;;2054804;28;20034;-47
2021/12/04 02:11:26;;;;;;;;;;;;;;;;;;2056718;28;20438;-48
2021/12/04 02:12:26;;;;;;;;;;;;;;;;;;2056874;28;19926;-47
2021/12/04 02:13:27;;;;;;;;;;;;;;;;;;2054793;28;19949;-47
2021/12/04 02:14:28;;;;;;;;;;;;;;;;;;2056640;28;19969;-50
2021/12/04 02:15:29;;;;;;;;;;;;;;;;;;2057085;28;20001;-47
2021/12/04 02:16:30;;;;;;;;;;;;;;;;;;2054747;28;20016;-47
2021/12/04 02:17:31;;;;;;;;;;;;;;;;;;2056780;28;19932;-46
2021/12/04 02:18:32;;;;;;;;;;;;;;;;;;2056878;28;19980;-48
2021/12/04 02:19:33;;;;;;;;;;;;;;;;;;2054673;28;19934;-47
2021/12/04 02:20:34;;;;;;;;;;;;;;;;;;2056860;28;19926;-47
2021/12/04 02:21:34;;;;;;;;;;;;;;;;;;2056915;28;19933;-47
2021/12/04 02:22:35;;;;;;;;;;;;;;;;;;2054621;28;19934;-46
2021/12/04 02:23:36;;;;;;;;;;;;;;;;;;2056876;28;20402;-47
2021/12/04 02:24:37;;;;;;;;;;;;;;;;;;2056887;28;19926;-47
2021/12/04 02:25:38;;;;;;;;;;;;;;;;;;2054596;28;19993;-47
2021/12/04 02:26:39;;;;;;;;;;;;;;;;;;2057002;28;19926;-47
2021/12/04 02:27:39;;;;;;;;;;;;;;;;;;2056296;28;19933;-46
2021/12/04 02:28:40;;;;;;;;;;;;;;;;;;2055158;28;20032;-47
2021/12/04 02:29:47;;;;;;;;;;;;;;;;;;2057005;28;19965;-47
2021/12/04 02:30:48;;;;;;;;;;;;;;;;;;2056259;28;20414;-47
2021/12/04 02:31:49;;;;;;;;;;;;;;;;;;2054139;28;20052;-47
2021/12/04 02:32:50;;;;;;;;;;;;;;;;;;2056446;28;20025;-47
2021/12/04 02:33:50;;;;;;;;;;;;;;;;;;2056352;28;19934;-47
2021/12/04 02:34:51;;;;;;;;;;;;;;;;;;2055238;28;20291;-47
2021/12/04 02:35:52;;;;;;;;;;;;;;;;;;2056797;28;19959;-48
2021/12/04 02:36:53;;;;;;;;;;;;;;;;;;2054772;28;19935;-43
2021/12/04 02:37:54;;;;;;;;;;;;;;;;;;2055434;28;19962;-43
2021/12/04 02:38:55;;;;;;;;;;;;;;;;;;2056915;28;20245;-43
2021/12/04 02:39:59;;;;;;;;;;;;;;;;;;2054683;28;19986;-43
2021/12/04 02:41:00;;;;;;;;;;;;;;;;;;2055655;28;19949;-43
2021/12/04 02:42:01;;;;;;;;;;;;;;;;;;2056783;28;19926;-43
2021/12/04 02:43:02;;;;;;;;;;;;;;;;;;2055867;28;19970;-43
2021/12/04 02:44:03;;;;;;;;;;;;;;;;;;2055550;28;19926;-43
2021/12/04 02:45:03;;;;;;;;;;;;;;;;;;2056885;28;19930;-43
2021/12/04 02:46:04;;;;;;;;;;;;;;;;;;2054291;28;19978;-43
2021/12/04 02:47:05;;;;;;;;;;;;;;;;;;2055238;28;20012;-42
2021/12/04 02:48:06;;;;;;;;;;;;;;;;;;2056737;28;19941;-43
2021/12/04 02:49:09;;;;;;;;;;;;;;;;;;2054424;28;19927;-43
2021/12/04 02:50:10;;;;;;;;;;;;;;;;;;2048922;28;19976;-43
2021/12/04 02:51:11;;;;;;;;;;;;;;;;;;2048826;29;19962;-43
2021/12/04 02:52:12;;;;;;;;;;;;;;;;;;2053218;28;19950;-43
2021/12/04 02:53:13;;;;;;;;;;;;;;;;;;2056679;28;19977;-43
2021/12/04 02:54:13;;;;;;;;;;;;;;;;;;2057476;28;19927;-43
2021/12/04 02:55:14;;;;;;;;;;;;;;;;;;2055794;28;19935;-43
2021/12/04 02:56:15;;;;;;;;;;;;;;;;;;2058134;28;19973;-43
2021/12/04 02:57:16;;;;;;;;;;;;;;;;;;2058056;28;19926;-43
2021/12/04 02:58:17;;;;;;;;;;;;;;;;;;2055804;28;19930;-43
2021/12/04 02:59:17;;;;;;;;;;;;;;;;;;2058110;28;19926;-43
2021/12/04 03:00:18;;;;;;;;;;;;;;;;;;2057497;28;19927;-43
2021/12/04 03:01:19;;;;;;;;;;;;;;;;;;2056351;28;19989;-43
2021/12/04 03:02:21;;;;;;;;;;;;;;;;;;2057987;28;20466;-43
2021/12/04 03:03:22;;;;;;;;;;;;;;;;;;2057715;28;19981;-43
2021/12/04 03:04:24;;;;;;;;;;;;;;;;;;2056135;28;20435;-43
2021/12/04 03:05:26;;;;;;;;;;;;;;;;;;2058180;28;20025;-43
2021/12/04 03:06:27;;;;;;;;;;;;;;;;;;2057607;28;20025;-43
2021/12/04 03:07:28;;;;;;;;;;;;;;;;;;2056326;28;20365;-43
2021/12/04 03:08:29;;;;;;;;;;;;;;;;;;2058034;28;20450;-43
2021/12/04 03:09:30;;;;;;;;;;;;;;;;;;2055834;28;19935;-43
2021/12/04 03:10:31;;;;;;;;;;;;;;;;;;2056756;28;19973;-43
2021/12/04 03:11:32;;;;;;;;;;;;;;;;;;2058001;28;19930;-43
2021/12/04 03:12:33;;;;;;;;;;;;;;;;;;2054458;28;19926;-43
2021/12/04 03:13:34;;;;;;;;;;;;;;;;;;2057960;28;19926;-46
2021/12/04 03:14:35;;;;;;;;;;;;;;;;;;2057939;28;19933;-47
2021/12/04 03:15:37;;;;;;;;;;;;;;;;;;2054419;28;19985;-47
2021/12/04 03:16:38;;;;;;;;;;;;;;;;;;2057899;28;20435;-50
2021/12/04 03:17:39;;;;;;;;;;;;;;;;;;2057931;28;19961;-47
2021/12/04 03:18:40;;;;;;;;;;;;;;;;;;2055622;28;19926;-47
2021/12/04 03:19:41;;;;;;;;;;;;;;;;;;2057922;28;19926;-47
2021/12/04 03:20:44;;;;;;;;;;;;;;;;;;2057949;28;19930;-48
2021/12/04 03:21:45;;;;;;;;;;;;;;;;;;2054561;28;20448;-46
2021/12/04 03:22:47;;;;;;;;;;;;;;;;;;2058073;28;20025;-46
2021/12/04 03:23:55;;;;;;;;;;;;;;;;;;2057026;28;20065;-47
2021/12/04 03:24:56;;;;;;;;;;;;;;;;;;2055289;28;20009;-48
2021/12/04 03:25:59;;;;;;;;;;;;;;;;;;2057998;28;19926;-47
2021/12/04 03:27:00;;;;;;;;;;;;;;;;;;2057100;28;20016;-47
2021/12/04 03:28:05;;;;;;;;;;;;;;;;;;2056558;28;19929;-47
2021/12/04 03:29:08;;;;;;;;;;;;;;;;;;2056162;28;20014;-46
2021/12/04 03:30:19;;;;;;;;;;;;;;;;;;2056697;28;20028;-47
2021/12/04 03:31:25;;;;;;;;;;;;;;;;;;2057715;28;20061;-47
2021/12/04 03:32:54;;;;;;;;;;;;;;;;;;2058309;28;19926;-43
2021/12/04 03:40:00;;;;;;;;;;;;;;;;;;2049998;28;20046;-43
2021/12/04 03:40:54;;;;;;;;;;;;;;;;;;2057920;28;20392;-43
2021/12/04 03:41:54;;;;;;;;;;;;;;;;;;2056754;28;20009;-43
2021/12/04 03:42:56;;;;;;;;;;;;;;;;;;2056689;28;19930;-43
2021/12/04 03:43:56;;;;;;;;;;;;;;;;;;2057822;28;20439;-43
2021/12/04 03:44:57;;;;;;;;;;;;;;;;;;2056523;28;19933;-43
2021/12/04 03:46:00;;;;;;;;;;;;;;;;;;2049760;28;19926;-42
2021/12/04 03:47:01;;;;;;;;;;;;;;;;;;2049728;29;20014;-43
2021/12/04 03:48:08;;;;;;;;;;;;;;;;;;2052951;28;19931;-43
2021/12/04 03:49:09;;;;;;;;;;;;;;;;;;2057763;28;20022;-43
2021/12/04 03:50:10;;;;;;;;;;;;;;;;;;2057905;28;19933;-43
2021/12/04 03:51:11;;;;;;;;;;;;;;;;;;2054565;28;19930;-43
2021/12/04 03:52:12;;;;;;;;;;;;;;;;;;2057745;28;19930;-43
2021/12/04 03:53:13;;;;;;;;;;;;;;;;;;2057286;28;19934;-43
2021/12/04 03:54:14;;;;;;;;;;;;;;;;;;2055777;28;19970;-43
2021/12/04 03:55:14;;;;;;;;;;;;;;;;;;2057883;28;19926;-43
2021/12/04 03:56:19;;;;;;;;;;;;;;;;;;2057222;28;19926;-43
2021/12/04 03:57:20;;;;;;;;;;;;;;;;;;2055256;28;20060;-43
2021/12/04 03:58:21;;;;;;;;;;;;;;;;;;2057699;28;19930;-43
2021/12/04 03:59:22;;;;;;;;;;;;;;;;;;2055947;28;20008;-43
2021/12/04 04:00:27;;;;;;;;;;;;;;;;;;2054914;28;19926;-42
2021/12/04 04:01:28;;;;;;;;;;;;;;;;;;2057240;28;19926;-44
2021/12/04 04:02:29;;;;;;;;;;;;;;;;;;2056677;28;19933;-43
2021/12/04 04:03:30;;;;;;;;;;;;;;;;;;2056395;28;20154;-43
2021/12/04 04:04:31;;;;;;;;;;;;;;;;;;2057733;28;19926;-43
2021/12/04 04:05:32;;;;;;;;;;;;;;;;;;2054148;28;19937;-43
2021/12/04 04:06:33;;;;;;;;;;;;;;;;;;2055941;28;19934;-43
2021/12/04 04:07:34;;;;;;;;;;;;;;;;;;2057656;28;19926;-43
2021/12/04 04:08:35;;;;;;;;;;;;;;;;;;2054371;28;19937;-43
2021/12/04 04:09:36;;;;;;;;;;;;;;;;;;2057382;28;19989;-43
2021/12/04 04:10:36;;;;;;;;;;;;;;;;;;2057690;28;19926;-43
2021/12/04 04:11:37;;;;;;;;;;;;;;;;;;2055146;28;19981;-43
2021/12/04 04:12:38;;;;;;;;;;;;;;;;;;2056316;28;19933;-43
2021/12/04 04:13:42;;;;;;;;;;;;;;;;;;2057668;28;20013;-43
2021/12/04 04:14:43;;;;;;;;;;;;;;;;;;2055439;28;19990;-43
2021/12/04 04:15:44;;;;;;;;;;;;;;;;;;2057510;28;20327;-43
2021/12/04 04:16:45;;;;;;;;;;;;;;;;;;2057611;28;19926;-43
2021/12/04 04:17:47;;;;;;;;;;;;;;;;;;2055303;28;19927;-43
2021/12/04 04:18:47;;;;;;;;;;;;;;;;;;2057533;28;20080;-43
2021/12/04 04:19:48;;;;;;;;;;;;;;;;;;2057769;28;20411;-43
2021/12/04 04:20:49;;;;;;;;;;;;;;;;;;2053811;28;19933;-43
2021/12/04 04:21:53;;;;;;;;;;;;;;;;;;2057735;28;19933;-43
2021/12/04 04:22:54;;;;;;;;;;;;;;;;;;2056332;28;20360;-43
2021/12/04 04:23:55;;;;;;;;;;;;;;;;;;2052969;28;19934;-42
2021/12/04 04:24:56;;;;;;;;;;;;;;;;;;2049689;28;19982;-42
2021/12/04 04:25:56;;;;;;;;;;;;;;;;;;2050453;28;19926;-43
2021/12/04 04:26:57;;;;;;;;;;;;;;;;;;2052068;28;19941;-43
2021/12/04 04:27:58;;;;;;;;;;;;;;;;;;2049724;28;19941;-42
2021/12/04 04:28:59;;;;;;;;;;;;;;;;;;2049867;28;19931;-43
2021/12/04 04:30:00;;;;;;;;;;;;;;;;;;2055993;28;19981;-43
2021/12/04 04:31:01;;;;;;;;;;;;;;;;;;2057530;28;20394;-43
2021/12/04 04:32:01;;;;;;;;;;;;;;;;;;2055226;28;19997;-43
2021/12/04 04:33:03;;;;;;;;;;;;;;;;;;2056382;28;19973;-43
2021/12/04 04:34:07;;;;;;;;;;;;;;;;;;2057382;28;19981;-43
2021/12/04 04:35:09;;;;;;;;;;;;;;;;;;2055361;28;20363;-43
2021/12/04 04:36:21;;;;;;;;;;;;;;;;;;2057445;28;19985;-43
2021/12/04 04:37:28;;;;;;;;;;;;;;;;;;2055865;28;20069;-48
2021/12/04 04:38:36;;;;;;;;;;;;;;;;;;2055590;28;20310;-47
2021/12/04 04:58:12;;;;;;;;;;;;;;;;;;2048964;28;19927;-46
2021/12/04 04:59:25;;;;;;;;;;;;;;;;;;2055102;28;20373;-47
2021/12/04 05:00:47;;;;;;;;;;;;;;;;;;2057690;28;20005;-42
2021/12/04 05:02:07;;;;;;;;;;;;;;;;;;2054930;28;19993;-42
2021/12/04 05:11:16;;;;;;;;;;;;;;;;;;2055999;28;20036;-43
2021/12/04 05:12:23;;;;;;;;;;;;;;;;;;2057218;28;20013;-43
2021/12/04 05:13:24;;;;;;;;;;;;;;;;;;2054992;28;19966;-43
2021/12/04 05:14:24;;;;;;;;;;;;;;;;;;2057351;28;19940;-47
2021/12/04 05:15:35;;;;;;;;;;;;;;;;;;2056740;28;19938;-47
2021/12/04 05:16:46;;;;;;;;;;;;;;;;;;2054839;28;19978;-42
2021/12/04 05:18:05;;;;;;;;;;;;;;;;;;2057456;28;20335;-46
2021/12/04 05:19:12;;;;;;;;;;;;;;;;;;2054706;28;19926;-47
2021/12/04 05:20:18;;;;;;;;;;;;;;;;;;2049444;29;20018;-47
2021/12/04 05:21:19;;;;;;;;;;;;;;;;;;2049920;28;20153;-46
2021/12/04 05:22:20;;;;;;;;;;;;;;;;;;2054820;28;20016;-46
2021/12/04 05:23:21;;;;;;;;;;;;;;;;;;2057326;28;20016;-49
2021/12/04 05:24:22;;;;;;;;;;;;;;;;;;2056569;28;19926;-47
2021/12/04 05:25:23;;;;;;;;;;;;;;;;;;2054499;28;19938;-47
2021/12/04 05:26:25;;;;;;;;;;;;;;;;;;2057369;28;20398;-47
2021/12/04 05:27:25;;;;;;;;;;;;;;;;;;2056640;28;19953;-47
2021/12/04 05:28:26;;;;;;;;;;;;;;;;;;2055473;28;19950;-43
2021/12/04 05:29:28;;;;;;;;;;;;;;;;;;2055725;28;20403;-43
2021/12/04 05:30:28;;;;;;;;;;;;;;;;;;2056482;28;19933;-43
2021/12/04 05:31:29;;;;;;;;;;;;;;;;;;2055479;28;20335;-43
2021/12/04 05:32:30;;;;;;;;;;;;;;;;;;2057237;28;19926;-42
2021/12/04 05:33:31;;;;;;;;;;;;;;;;;;2056339;28;19977;-43
2021/12/04 05:34:32;;;;;;;;;;;;;;;;;;2055700;28;19930;-43
2021/12/04 05:35:33;;;;;;;;;;;;;;;;;;2057272;28;19937;-43
2021/12/04 05:36:34;;;;;;;;;;;;;;;;;;2056340;28;19934;-43
2021/12/04 05:37:34;;;;;;;;;;;;;;;;;;2054580;28;19926;-43
2021/12/04 05:38:35;;;;;;;;;;;;;;;;;;2057242;28;19926;-43
2021/12/04 05:39:36;;;;;;;;;;;;;;;;;;2054612;28;19926;-43
2021/12/04 05:40:37;;;;;;;;;;;;;;;;;;2055400;28;19972;-43
2021/12/04 05:41:38;;;;;;;;;;;;;;;;;;2057079;28;19926;-43
2021/12/04 05:42:39;;;;;;;;;;;;;;;;;;2055225;28;19973;-43
2021/12/04 05:43:41;;;;;;;;;;;;;;;;;;2055675;28;20287;-43
2021/12/04 05:44:43;;;;;;;;;;;;;;;;;;2057169;28;19926;-43
2021/12/04 05:45:47;;;;;;;;;;;;;;;;;;2054272;28;20474;-43
2021/12/04 05:46:54;;;;;;;;;;;;;;;;;;2056108;28;19926;-43
2021/12/04 05:48:00;;;;;;;;;;;;;;;;;;2057176;28;19934;-43
2021/12/04 05:49:04;;;;;;;;;;;;;;;;;;2053691;28;19966;-43
2021/12/04 05:50:17;;;;;;;;;;;;;;;;;;2049114;28;20435;-43
2021/12/04 05:51:35;;;;;;;;;;;;;;;;;;2050838;28;20009;-43
2021/12/04 05:52:40;;;;;;;;;;;;;;;;;;2055839;28;19964;-43
2021/12/04 05:53:44;;;;;;;;;;;;;;;;;;2057193;28;20012;-43
2021/12/04 05:55:07;;;;;;;;;;;;;;;;;;2053785;28;20056;-44
2021/12/04 05:56:07;;;;;;;;;;;;;;;;;;2049114;29;20384;-43
2021/12/04 05:57:08;;;;;;;;;;;;;;;;;;2050111;28;19933;-43
2021/12/04 05:58:09;;;;;;;;;;;;;;;;;;2055288;28;20397;-43
2021/12/04 05:59:10;;;;;;;;;;;;;;;;;;2057135;28;19930;-43
2021/12/04 06:00:11;;;;;;;;;;;;;;;;;;2056179;28;19973;-43
2021/12/04 06:01:13;;;;;;;;;;;;;;;;;;2055436;28;19926;-43
2021/12/04 06:02:16;;;;;;;;;;;;;;;;;;2056947;28;19970;-46
2021/12/04 06:03:17;;;;;;;;;;;;;;;;;;2056099;28;19930;-43
2021/12/04 06:04:18;;;;;;;;;;;;;;;;;;2055464;28;19934;-43
2021/12/04 06:05:19;;;;;;;;;;;;;;;;;;2057194;28;19933;-43
2021/12/04 06:06:20;;;;;;;;;;;;;;;;;;2055602;28;20339;-43
2021/12/04 06:07:21;;;;;;;;;;;;;;;;;;2055159;28;20012;-43
2021/12/04 06:08:21;;;;;;;;;;;;;;;;;;2057029;28;19977;-43
2021/12/04 06:09:23;;;;;;;;;;;;;;;;;;2054928;28;19956;-47
2021/12/04 06:10:24;;;;;;;;;;;;;;;;;;2049241;28;20300;-46
2021/12/04 06:11:25;;;;;;;;;;;;;;;;;;2049213;28;20008;-47
2021/12/04 06:12:25;;;;;;;;;;;;;;;;;;2052027;28;20315;-48
2021/12/04 06:13:26;;;;;;;;;;;;;;;;;;2056678;28;19973;-47
2021/12/04 06:14:27;;;;;;;;;;;;;;;;;;2057052;28;19926;-48
2021/12/04 06:15:28;;;;;;;;;;;;;;;;;;2054621;28;19930;-47
2021/12/04 06:16:29;;;;;;;;;;;;;;;;;;2057007;28;19934;-47
2021/12/04 06:17:30;;;;;;;;;;;;;;;;;;2056770;28;20343;-46
2021/12/04 06:18:32;;;;;;;;;;;;;;;;;;2054649;28;19926;-47
2021/12/04 06:23:32;;;;;;;;;;;;;;;;;;2057004;28;20065;-47
2021/12/04 06:24:33;;;;;;;;;;;;;;;;;;2054537;28;20024;-47
2021/12/04 06:25:34;;;;;;;;;;;;;;;;;;2057068;28;19926;-47
2021/12/04 06:26:35;;;;;;;;;;;;;;;;;;2057171;28;20017;-47
2021/12/04 06:27:36;;;;;;;;;;;;;;;;;;2054434;28;20303;-47
2021/12/04 06:28:36;;;;;;;;;;;;;;;;;;2056952;28;19926;-47
2021/12/04 06:29:37;;;;;;;;;;;;;;;;;;2055945;28;19980;-47
2021/12/04 06:30:39;;;;;;;;;;;;;;;;;;2055454;28;19926;-47
2021/12/04 06:31:40;;;;;;;;;;;;;;;;;;2058318;28;20324;-48
2021/12/04 06:32:41;;;;;;;;;;;;;;;;;;2056889;28;19926;-48
2021/12/04 06:33:42;;;;;;;;;;;;;;;;;;2055070;28;20005;-47
2021/12/04 06:34:43;;;;;;;;;;;;;;;;;;2058258;28;19950;-49
2021/12/04 06:35:44;;;;;;;;;;;;;;;;;;2057673;28;20068;-47
2021/12/04 06:36:44;;;;;;;;;;;;;;;;;;2051614;28;19969;-47
2021/12/04 06:37:45;;;;;;;;;;;;;;;;;;2050155;29;19934;-46
2021/12/04 06:38:46;;;;;;;;;;;;;;;;;;2052277;28;19930;-50
2021/12/04 06:39:47;;;;;;;;;;;;;;;;;;2051050;28;20390;-47
2021/12/04 06:40:48;;;;;;;;;;;;;;;;;;2050303;28;19989;-48
2021/12/04 06:41:49;;;;;;;;;;;;;;;;;;2051847;28;20446;-47
2021/12/04 06:42:50;;;;;;;;;;;;;;;;;;2057828;28;19933;-47
2021/12/04 06:43:52;;;;;;;;;;;;;;;;;;2058241;28;19926;-47
2021/12/04 06:44:55;;;;;;;;;;;;;;;;;;2054829;28;20018;-48
2021/12/04 06:46:00;;;;;;;;;;;;;;;;;;2058221;28;20347;-50
2021/12/04 06:47:01;;;;;;;;;;;;;;;;;;2058125;28;19968;-47
2021/12/04 06:48:04;;;;;;;;;;;;;;;;;;2054724;28;19969;-47
2021/12/04 06:49:09;;;;;;;;;;;;;;;;;;2058274;28;20008;-43
2021/12/04 06:50:15;;;;;;;;;;;;;;;;;;2057190;28;20016;-42
2021/12/04 06:51:23;;;;;;;;;;;;;;;;;;2055398;28;20422;-43
2021/12/04 06:52:26;;;;;;;;;;;;;;;;;;2057797;28;20021;-44
2021/12/04 06:53:31;;;;;;;;;;;;;;;;;;2057084;28;19966;-44
2021/12/04 06:54:35;;;;;;;;;;;;;;;;;;2056770;28;19926;-43
2021/12/04 06:55:41;;;;;;;;;;;;;;;;;;2058090;28;19936;-44
2021/12/04 06:56:43;;;;;;;;;;;;;;;;;;2056175;28;19973;-45
2021/12/04 06:57:44;;;;;;;;;;;;;;;;;;2056925;28;19926;-44
2021/12/04 06:58:45;;;;;;;;;;;;;;;;;;2058099;28;20394;-44
2021/12/04 06:59:47;;;;;;;;;;;;;;;;;;2056408;28;19938;-44
2021/12/04 07:00:48;;;;;;;;;;;;;;;;;;2049999;28;20432;-44
2021/12/04 07:01:50;;;;;;;;;;;;;;;;;;2050155;29;20045;-44
2021/12/04 07:02:51;;;;;;;;;;;;;;;;;;2054914;28;19926;-44
2021/12/04 07:03:52;;;;;;;;;;;;;;;;;;2058096;28;19981;-44
2021/12/04 07:04:52;;;;;;;;;;;;;;;;;;2058071;28;19934;-44
2021/12/04 07:05:53;;;;;;;;;;;;;;;;;;2055780;28;19927;-44
2021/12/04 07:06:54;;;;;;;;;;;;;;;;;;2057911;28;19933;-44
2021/12/04 07:07:55;;;;;;;;;;;;;;;;;;2057578;28;20380;-44
2021/12/04 07:08:57;;;;;;;;;;;;;;;;;;2056217;28;19941;-44
2021/12/04 07:09:58;;;;;;;;;;;;;;;;;;2058027;28;20612;-44
2021/12/04 07:10:59;;;;;;;;;;;;;;;;;;2057530;28;19933;-45
2021/12/04 07:12:00;;;;;;;;;;;;;;;;;;2054870;28;19930;-44
2021/12/04 07:13:00;;;;;;;;;;;;;;;;;;2058018;28;20404;-45
2021/12/04 07:14:01;;;;;;;;;;;;;;;;;;2057316;28;20036;-45
2021/12/04 07:15:02;;;;;;;;;;;;;;;;;;2056428;28;19933;-47
2021/12/04 07:16:04;;;;;;;;;;;;;;;;;;2058357;28;19933;-45
2021/12/04 07:17:05;;;;;;;;;;;;;;;;;;2055908;28;19926;-43
2021/12/04 07:18:06;;;;;;;;;;;;;;;;;;2049932;28;19933;-45
2021/12/04 07:19:07;;;;;;;;;;;;;;;;;;2050124;28;20331;-46
2021/12/04 07:20:08;;;;;;;;;;;;;;;;;;2053919;28;20343;-46
2021/12/04 07:21:08;;;;;;;;;;;;;;;;;;2057602;28;20328;-46
2021/12/04 07:22:11;;;;;;;;;;;;;;;;;;2057961;28;20297;-45
2021/12/04 07:23:11;;;;;;;;;;;;;;;;;;2055040;28;20012;-45
2021/12/04 07:24:12;;;;;;;;;;;;;;;;;;2049883;28;19937;-44
2021/12/04 07:25:13;;;;;;;;;;;;;;;;;;2049941;29;19980;-45
2021/12/04 07:26:14;;;;;;;;;;;;;;;;;;2054194;28;19927;-44
2021/12/04 07:27:17;;;;;;;;;;;;;;;;;;2057854;28;20039;-45
2021/12/04 07:28:18;;;;;;;;;;;;;;;;;;2057966;28;20020;-44
2021/12/04 07:29:18;;;;;;;;;;;;;;;;;;2054212;28;19933;-44
2021/12/04 07:30:19;;;;;;;;;;;;;;;;;;2058257;28;19933;-48
2021/12/04 07:31:20;;;;;;;;;;;;;;;;;;2058017;28;19927;-50
2021/12/04 07:32:21;;;;;;;;;;;;;;;;;;2055665;28;20017;-50
2021/12/04 07:33:22;;;;;;;;;;;;;;;;;;2057926;28;19981;-48
2021/12/04 07:34:23;;;;;;;;;;;;;;;;;;2057527;28;19996;-44
2021/12/04 07:35:24;;;;;;;;;;;;;;;;;;2056232;28;19926;-44
2021/12/04 07:36:25;;;;;;;;;;;;;;;;;;2057810;28;19926;-45
2021/12/04 07:37:26;;;;;;;;;;;;;;;;;;2056450;28;19926;-45
2021/12/04 07:38:27;;;;;;;;;;;;;;;;;;2056041;28;19940;-44
2021/12/04 07:39:28;;;;;;;;;;;;;;;;;;2057878;28;19926;-45
2021/12/04 07:40:29;;;;;;;;;;;;;;;;;;2056312;28;19926;-44
2021/12/04 07:41:30;;;;;;;;;;;;;;;;;;2056057;28;19949;-45
2021/12/04 07:42:31;;;;;;;;;;;;;;;;;;2057928;28;20017;-45
2021/12/04 07:43:31;;;;;;;;;;;;;;;;;;2055674;28;19980;-46
2021/12/04 07:44:32;;;;;;;;;;;;;;;;;;2055583;28;19945;-46
2021/12/04 07:45:33;;;;;;;;;;;;;;;;;;2057787;28;19930;-45
2021/12/04 07:46:34;;;;;;;;;;;;;;;;;;2056919;28;19980;-48
2021/12/04 07:47:35;;;;;;;;;;;;;;;;;;2056264;28;19927;-46
2021/12/04 07:48:35;;;;;;;;;;;;;;;;;;2057910;28;20417;-46
2021/12/04 07:49:37;;;;;;;;;;;;;;;;;;2056975;28;19959;-44